sensor_id;sensor_type;location;lat;lon;timestamp;temperature;humidity
33741;DHT22;20065;48.380;10.892;2023-02-10T00:00:05;-1.80;99.90
33741;DHT22;20065;48.380;10.892;2023-02-10T00:02:51;-1.70;99.90
33741;DHT22;20065;48.380;10.892;2023-02-10T00:05:41;-1.70;99.90
33741;DHT22;20065;48.380;10.892;2023-02-10T00:08:27;-1.80;99.90
33741;DHT22;20065;48.380;10.892;2023-02-10T00:11:14;-1.80;99.90
33741;DHT22;20065;48.380;10.892;2023-02-10T00:14:01;-2.00;99.90
33741;DHT22;20065;48.380;10.892;2023-02-10T00:16:52;-2.10;99.90
33741;DHT22;20065;48.380;10.892;2023-02-10T00:19:38;-2.10;99.90
33741;DHT22;20065;48.380;10.892;2023-02-10T00:22:28;-2.10;99.90
33741;DHT22;20065;48.380;10.892;2023-02-10T00:25:14;-2.10;99.90
33741;DHT22;20065;48.380;10.892;2023-02-10T00:28:03;-2.20;99.90
33741;DHT22;20065;48.380;10.892;2023-02-10T00:30:50;-2.00;99.90
33741;DHT22;20065;48.380;10.892;2023-02-10T00:33:36;-1.90;99.90
33741;DHT22;20065;48.380;10.892;2023-02-10T00:36:22;-1.80;99.90
33741;DHT22;20065;48.380;10.892;2023-02-10T00:39:15;-1.80;99.90
33741;DHT22;20065;48.380;10.892;2023-02-10T00:42:01;-1.80;99.90
33741;DHT22;20065;48.380;10.892;2023-02-10T00:44:47;-1.70;99.90
33741;DHT22;20065;48.380;10.892;2023-02-10T00:47:33;-1.70;99.90
33741;DHT22;20065;48.380;10.892;2023-02-10T00:50:20;-1.80;99.90
33741;DHT22;20065;48.380;10.892;2023-02-10T00:53:06;-1.80;99.90
33741;DHT22;20065;48.380;10.892;2023-02-10T00:55:53;-1.80;99.90
33741;DHT22;20065;48.380;10.892;2023-02-10T00:58:42;-1.90;99.90
33741;DHT22;20065;48.380;10.892;2023-02-10T01:01:28;-1.90;99.90
33741;DHT22;20065;48.380;10.892;2023-02-10T01:04:14;-1.90;99.90
33741;DHT22;20065;48.380;10.892;2023-02-10T01:07:01;-1.90;99.90
33741;DHT22;20065;48.380;10.892;2023-02-10T01:09:50;-1.90;99.90
33741;DHT22;20065;48.380;10.892;2023-02-10T01:12:36;-1.90;99.90
33741;DHT22;20065;48.380;10.892;2023-02-10T01:15:22;-1.90;99.90
33741;DHT22;20065;48.380;10.892;2023-02-10T01:18:09;-2.00;99.90
33741;DHT22;20065;48.380;10.892;2023-02-10T01:20:59;-2.00;99.90
33741;DHT22;20065;48.380;10.892;2023-02-10T01:23:51;-1.90;99.90
33741;DHT22;20065;48.380;10.892;2023-02-10T01:26:37;-2.10;99.90
33741;DHT22;20065;48.380;10.892;2023-02-10T01:29:23;-2.10;99.90
33741;DHT22;20065;48.380;10.892;2023-02-10T01:32:09;-2.30;99.90
33741;DHT22;20065;48.380;10.892;2023-02-10T01:34:56;-2.30;99.90
33741;DHT22;20065;48.380;10.892;2023-02-10T01:37:42;-2.30;99.90
33741;DHT22;20065;48.380;10.892;2023-02-10T01:40:29;-2.10;99.90
33741;DHT22;20065;48.380;10.892;2023-02-10T01:43:16;-2.10;99.90
33741;DHT22;20065;48.380;10.892;2023-02-10T01:46:03;-2.00;99.90
33741;DHT22;20065;48.380;10.892;2023-02-10T01:48:49;-2.10;99.90
33741;DHT22;20065;48.380;10.892;2023-02-10T01:51:41;-2.20;99.90
33741;DHT22;20065;48.380;10.892;2023-02-10T01:54:38;-2.30;99.90
33741;DHT22;20065;48.380;10.892;2023-02-10T01:57:24;-2.30;99.90
33741;DHT22;20065;48.380;10.892;2023-02-10T02:00:12;-2.30;99.90
33741;DHT22;20065;48.380;10.892;2023-02-10T02:02:59;-2.50;99.90
33741;DHT22;20065;48.380;10.892;2023-02-10T02:05:46;-2.50;99.90
33741;DHT22;20065;48.380;10.892;2023-02-10T02:08:32;-2.40;99.90
33741;DHT22;20065;48.380;10.892;2023-02-10T02:17:39;-2.40;99.90
33741;DHT22;20065;48.380;10.892;2023-02-10T02:24:20;-2.50;99.90
33741;DHT22;20065;48.380;10.892;2023-02-10T02:34:02;-2.60;99.90
33741;DHT22;20065;48.380;10.892;2023-02-10T02:36:54;-2.60;99.90
33741;DHT22;20065;48.380;10.892;2023-02-10T02:39:42;-2.60;99.90
33741;DHT22;20065;48.380;10.892;2023-02-10T02:42:30;-2.60;99.90
33741;DHT22;20065;48.380;10.892;2023-02-10T02:45:27;-2.60;99.90
33741;DHT22;20065;48.380;10.892;2023-02-10T02:51:56;-2.60;99.90
33741;DHT22;20065;48.380;10.892;2023-02-10T02:57:52;-2.60;99.90
33741;DHT22;20065;48.380;10.892;2023-02-10T03:00:41;-2.60;99.90
33741;DHT22;20065;48.380;10.892;2023-02-10T03:03:30;-2.60;99.90
33741;DHT22;20065;48.380;10.892;2023-02-10T03:06:16;-2.40;99.90
33741;DHT22;20065;48.380;10.892;2023-02-10T03:09:02;-2.40;99.90
33741;DHT22;20065;48.380;10.892;2023-02-10T03:11:48;-2.40;99.90
33741;DHT22;20065;48.380;10.892;2023-02-10T03:14:34;-2.50;99.90
33741;DHT22;20065;48.380;10.892;2023-02-10T03:17:21;-2.40;99.90
33741;DHT22;20065;48.380;10.892;2023-02-10T03:20:07;-2.30;99.90
33741;DHT22;20065;48.380;10.892;2023-02-10T03:22:54;-2.20;99.90
33741;DHT22;20065;48.380;10.892;2023-02-10T03:25:40;-2.00;99.90
33741;DHT22;20065;48.380;10.892;2023-02-10T03:28:27;-1.90;99.90
33741;DHT22;20065;48.380;10.892;2023-02-10T03:31:13;-2.00;99.90
33741;DHT22;20065;48.380;10.892;2023-02-10T03:33:59;-2.00;99.90
33741;DHT22;20065;48.380;10.892;2023-02-10T03:36:46;-1.90;99.90
33741;DHT22;20065;48.380;10.892;2023-02-10T03:39:32;-1.90;99.90
33741;DHT22;20065;48.380;10.892;2023-02-10T03:42:18;-2.00;99.90
33741;DHT22;20065;48.380;10.892;2023-02-10T03:45:04;-2.00;99.90
33741;DHT22;20065;48.380;10.892;2023-02-10T03:47:51;-2.10;99.90
33741;DHT22;20065;48.380;10.892;2023-02-10T03:50:37;-2.00;99.90
33741;DHT22;20065;48.380;10.892;2023-02-10T03:53:23;-2.00;99.90
33741;DHT22;20065;48.380;10.892;2023-02-10T03:56:10;-2.10;99.90
33741;DHT22;20065;48.380;10.892;2023-02-10T03:58:59;-2.10;99.90
33741;DHT22;20065;48.380;10.892;2023-02-10T04:01:45;-2.10;99.90
33741;DHT22;20065;48.380;10.892;2023-02-10T04:04:31;-2.10;99.90
33741;DHT22;20065;48.380;10.892;2023-02-10T04:07:18;-2.10;99.90
33741;DHT22;20065;48.380;10.892;2023-02-10T04:10:05;-2.10;99.90
33741;DHT22;20065;48.380;10.892;2023-02-10T04:12:51;-2.20;99.90
33741;DHT22;20065;48.380;10.892;2023-02-10T04:16:12;-2.50;99.90
33741;DHT22;20065;48.380;10.892;2023-02-10T04:18:59;-2.40;99.90
33741;DHT22;20065;48.380;10.892;2023-02-10T04:21:45;-2.40;99.90
33741;DHT22;20065;48.380;10.892;2023-02-10T04:24:31;-2.40;99.90
33741;DHT22;20065;48.380;10.892;2023-02-10T04:27:17;-2.40;99.90
33741;DHT22;20065;48.380;10.892;2023-02-10T04:30:04;-2.50;99.90
33741;DHT22;20065;48.380;10.892;2023-02-10T04:32:54;-2.50;99.90
33741;DHT22;20065;48.380;10.892;2023-02-10T04:35:40;-2.80;99.90
33741;DHT22;20065;48.380;10.892;2023-02-10T04:38:26;-2.90;99.90
33741;DHT22;20065;48.380;10.892;2023-02-10T04:41:14;-2.80;99.90
33741;DHT22;20065;48.380;10.892;2023-02-10T04:44:01;-2.90;99.90
33741;DHT22;20065;48.380;10.892;2023-02-10T04:46:47;-3.00;99.90
33741;DHT22;20065;48.380;10.892;2023-02-10T04:49:35;-3.00;99.90
33741;DHT22;20065;48.380;10.892;2023-02-10T04:52:22;-3.10;99.90
33741;DHT22;20065;48.380;10.892;2023-02-10T04:55:08;-3.10;99.90
33741;DHT22;20065;48.380;10.892;2023-02-10T04:57:54;-3.20;99.90
33741;DHT22;20065;48.380;10.892;2023-02-10T05:00:41;-3.20;99.90
33741;DHT22;20065;48.380;10.892;2023-02-10T05:03:27;-3.30;99.90
33741;DHT22;20065;48.380;10.892;2023-02-10T05:06:14;-3.20;99.90
33741;DHT22;20065;48.380;10.892;2023-02-10T05:09:00;-3.20;99.90
33741;DHT22;20065;48.380;10.892;2023-02-10T05:11:50;-3.20;99.90
33741;DHT22;20065;48.380;10.892;2023-02-10T05:14:36;-3.10;99.90
33741;DHT22;20065;48.380;10.892;2023-02-10T05:17:22;-3.10;99.90
33741;DHT22;20065;48.380;10.892;2023-02-10T05:20:09;-3.10;99.90
33741;DHT22;20065;48.380;10.892;2023-02-10T05:22:55;-3.00;99.90
33741;DHT22;20065;48.380;10.892;2023-02-10T05:25:41;-3.00;99.90
33741;DHT22;20065;48.380;10.892;2023-02-10T05:28:27;-2.90;99.90
33741;DHT22;20065;48.380;10.892;2023-02-10T05:31:17;-2.80;99.90
33741;DHT22;20065;48.380;10.892;2023-02-10T05:34:03;-2.70;99.90
33741;DHT22;20065;48.380;10.892;2023-02-10T05:36:49;-2.80;99.90
33741;DHT22;20065;48.380;10.892;2023-02-10T05:39:35;-2.90;99.90
33741;DHT22;20065;48.380;10.892;2023-02-10T05:42:22;-2.90;99.90
33741;DHT22;20065;48.380;10.892;2023-02-10T05:45:08;-2.80;99.90
33741;DHT22;20065;48.380;10.892;2023-02-10T05:47:54;-2.80;99.90
33741;DHT22;20065;48.380;10.892;2023-02-10T05:50:41;-2.80;99.90
33741;DHT22;20065;48.380;10.892;2023-02-10T05:53:33;-2.70;99.90
33741;DHT22;20065;48.380;10.892;2023-02-10T05:56:19;-2.60;99.90
33741;DHT22;20065;48.380;10.892;2023-02-10T05:59:05;-2.60;99.90
33741;DHT22;20065;48.380;10.892;2023-02-10T06:01:52;-2.60;99.90
33741;DHT22;20065;48.380;10.892;2023-02-10T06:04:38;-2.60;99.90
33741;DHT22;20065;48.380;10.892;2023-02-10T06:07:24;-2.60;99.90
33741;DHT22;20065;48.380;10.892;2023-02-10T06:10:10;-2.70;99.90
33741;DHT22;20065;48.380;10.892;2023-02-10T06:12:56;-2.70;99.90
33741;DHT22;20065;48.380;10.892;2023-02-10T06:15:42;-2.70;99.90
33741;DHT22;20065;48.380;10.892;2023-02-10T06:18:29;-2.70;99.90
33741;DHT22;20065;48.380;10.892;2023-02-10T06:21:16;-2.70;99.90
33741;DHT22;20065;48.380;10.892;2023-02-10T06:24:02;-2.70;99.90
33741;DHT22;20065;48.380;10.892;2023-02-10T06:26:48;-2.80;99.90
33741;DHT22;20065;48.380;10.892;2023-02-10T06:29:35;-2.70;99.90
33741;DHT22;20065;48.380;10.892;2023-02-10T06:32:21;-2.70;99.90
33741;DHT22;20065;48.380;10.892;2023-02-10T06:35:07;-2.80;99.90
33741;DHT22;20065;48.380;10.892;2023-02-10T06:37:55;-2.70;99.90
33741;DHT22;20065;48.380;10.892;2023-02-10T06:40:42;-2.70;99.90
33741;DHT22;20065;48.380;10.892;2023-02-10T06:43:28;-2.70;99.90
33741;DHT22;20065;48.380;10.892;2023-02-10T06:46:14;-2.70;99.90
33741;DHT22;20065;48.380;10.892;2023-02-10T06:49:01;-2.70;99.90
33741;DHT22;20065;48.380;10.892;2023-02-10T06:51:48;-2.70;99.90
33741;DHT22;20065;48.380;10.892;2023-02-10T06:54:34;-2.70;99.90
33741;DHT22;20065;48.380;10.892;2023-02-10T06:57:20;-2.60;99.90
33741;DHT22;20065;48.380;10.892;2023-02-10T07:00:11;-2.60;99.90
33741;DHT22;20065;48.380;10.892;2023-02-10T07:02:58;-2.50;99.90
33741;DHT22;20065;48.380;10.892;2023-02-10T07:05:44;-2.50;99.90
33741;DHT22;20065;48.380;10.892;2023-02-10T07:08:31;-2.50;99.90
33741;DHT22;20065;48.380;10.892;2023-02-10T07:11:17;-2.50;99.90
33741;DHT22;20065;48.380;10.892;2023-02-10T07:14:03;-2.50;99.90
33741;DHT22;20065;48.380;10.892;2023-02-10T07:16:49;-2.50;99.90
33741;DHT22;20065;48.380;10.892;2023-02-10T07:19:35;-2.50;99.90
33741;DHT22;20065;48.380;10.892;2023-02-10T07:22:21;-2.40;99.90
33741;DHT22;20065;48.380;10.892;2023-02-10T07:25:07;-2.40;99.90
33741;DHT22;20065;48.380;10.892;2023-02-10T07:27:54;-2.30;99.90
33741;DHT22;20065;48.380;10.892;2023-02-10T07:30:40;-2.20;99.90
33741;DHT22;20065;48.380;10.892;2023-02-10T07:33:26;-2.20;99.90
33741;DHT22;20065;48.380;10.892;2023-02-10T07:36:14;-2.10;99.90
33741;DHT22;20065;48.380;10.892;2023-02-10T07:39:00;-2.00;99.90
33741;DHT22;20065;48.380;10.892;2023-02-10T07:41:47;-2.00;99.90
33741;DHT22;20065;48.380;10.892;2023-02-10T07:44:33;-1.90;99.90
33741;DHT22;20065;48.380;10.892;2023-02-10T07:47:19;-1.90;99.90
33741;DHT22;20065;48.380;10.892;2023-02-10T07:50:05;-1.80;99.90
33741;DHT22;20065;48.380;10.892;2023-02-10T07:52:52;-1.80;99.90
33741;DHT22;20065;48.380;10.892;2023-02-10T07:55:39;-1.60;99.90
33741;DHT22;20065;48.380;10.892;2023-02-10T07:58:25;-1.50;99.90
33741;DHT22;20065;48.380;10.892;2023-02-10T08:01:11;-1.40;99.90
33741;DHT22;20065;48.380;10.892;2023-02-10T08:03:58;-1.30;99.90
33741;DHT22;20065;48.380;10.892;2023-02-10T08:06:44;-1.20;99.90
33741;DHT22;20065;48.380;10.892;2023-02-10T08:09:30;-1.20;99.90
33741;DHT22;20065;48.380;10.892;2023-02-10T08:12:16;-1.10;99.90
33741;DHT22;20065;48.380;10.892;2023-02-10T08:15:03;-1.30;99.90
33741;DHT22;20065;48.380;10.892;2023-02-10T08:17:50;-1.40;99.90
33741;DHT22;20065;48.380;10.892;2023-02-10T08:20:36;-1.40;99.90
33741;DHT22;20065;48.380;10.892;2023-02-10T08:23:22;-1.30;99.90
33741;DHT22;20065;48.380;10.892;2023-02-10T08:26:10;-1.10;99.90
33741;DHT22;20065;48.380;10.892;2023-02-10T08:28:57;-1.30;99.90
33741;DHT22;20065;48.380;10.892;2023-02-10T08:31:48;-1.20;99.90
33741;DHT22;20065;48.380;10.892;2023-02-10T08:34:34;-1.20;99.90
33741;DHT22;20065;48.380;10.892;2023-02-10T08:37:22;-1.30;99.90
33741;DHT22;20065;48.380;10.892;2023-02-10T08:40:09;-1.20;99.90
33741;DHT22;20065;48.380;10.892;2023-02-10T08:42:55;-1.00;99.90
33741;DHT22;20065;48.380;10.892;2023-02-10T08:45:42;-0.90;99.90
33741;DHT22;20065;48.380;10.892;2023-02-10T08:48:28;-0.80;99.90
33741;DHT22;20065;48.380;10.892;2023-02-10T08:51:16;-0.70;99.90
33741;DHT22;20065;48.380;10.892;2023-02-10T08:54:02;-0.50;99.90
33741;DHT22;20065;48.380;10.892;2023-02-10T08:56:53;0.00;99.90
33741;DHT22;20065;48.380;10.892;2023-02-10T08:59:39;0.80;99.90
33741;DHT22;20065;48.380;10.892;2023-02-10T09:02:26;1.30;99.90
33741;DHT22;20065;48.380;10.892;2023-02-10T09:05:12;1.80;99.90
33741;DHT22;20065;48.380;10.892;2023-02-10T09:08:00;2.50;99.90
33741;DHT22;20065;48.380;10.892;2023-02-10T09:10:47;3.50;99.90
33741;DHT22;20065;48.380;10.892;2023-02-10T09:13:33;3.20;99.90
33741;DHT22;20065;48.380;10.892;2023-02-10T09:16:20;3.70;99.90
33741;DHT22;20065;48.380;10.892;2023-02-10T09:19:06;4.50;99.90
33741;DHT22;20065;48.380;10.892;2023-02-10T09:21:52;4.40;99.90
33741;DHT22;20065;48.380;10.892;2023-02-10T09:24:41;3.80;99.90
33741;DHT22;20065;48.380;10.892;2023-02-10T09:27:32;3.40;99.90
33741;DHT22;20065;48.380;10.892;2023-02-10T09:30:18;3.50;99.90
33741;DHT22;20065;48.380;10.892;2023-02-10T09:33:04;4.50;99.90
33741;DHT22;20065;48.380;10.892;2023-02-10T09:35:51;5.10;99.90
33741;DHT22;20065;48.380;10.892;2023-02-10T09:38:37;5.80;99.90
33741;DHT22;20065;48.380;10.892;2023-02-10T09:44:26;4.50;99.90
33741;DHT22;20065;48.380;10.892;2023-02-10T09:50:44;3.50;99.90
33741;DHT22;20065;48.380;10.892;2023-02-10T09:53:31;3.40;99.90
33741;DHT22;20065;48.380;10.892;2023-02-10T09:56:20;3.50;99.90
33741;DHT22;20065;48.380;10.892;2023-02-10T09:59:13;3.80;99.90
33741;DHT22;20065;48.380;10.892;2023-02-10T10:02:03;5.20;99.90
33741;DHT22;20065;48.380;10.892;2023-02-10T10:04:55;5.80;99.90
33741;DHT22;20065;48.380;10.892;2023-02-10T10:07:45;5.90;99.90
33741;DHT22;20065;48.380;10.892;2023-02-10T10:10:42;5.60;99.90
33741;DHT22;20065;48.380;10.892;2023-02-10T10:13:34;5.40;99.90
33741;DHT22;20065;48.380;10.892;2023-02-10T10:26:20;5.30;99.90
33741;DHT22;20065;48.380;10.892;2023-02-10T10:29:23;5.90;99.90
33741;DHT22;20065;48.380;10.892;2023-02-10T10:32:18;7.10;99.90
33741;DHT22;20065;48.380;10.892;2023-02-10T10:35:21;9.40;99.90
33741;DHT22;20065;48.380;10.892;2023-02-10T10:38:17;11.60;96.90
33741;DHT22;20065;48.380;10.892;2023-02-10T10:41:10;12.40;93.00
33741;DHT22;20065;48.380;10.892;2023-02-10T10:43:57;13.40;92.10
33741;DHT22;20065;48.380;10.892;2023-02-10T10:47:11;14.40;90.30
33741;DHT22;20065;48.380;10.892;2023-02-10T10:49:58;14.80;89.70
33741;DHT22;20065;48.380;10.892;2023-02-10T10:52:46;14.80;87.60
33741;DHT22;20065;48.380;10.892;2023-02-10T10:55:42;14.10;87.70
33741;DHT22;20065;48.380;10.892;2023-02-10T10:58:42;13.90;88.00
33741;DHT22;20065;48.380;10.892;2023-02-10T11:01:33;14.80;86.70
33741;DHT22;20065;48.380;10.892;2023-02-10T11:04:25;15.60;82.40
33741;DHT22;20065;48.380;10.892;2023-02-10T11:07:22;14.70;80.70
33741;DHT22;20065;48.380;10.892;2023-02-10T11:13:18;13.40;84.90
33741;DHT22;20065;48.380;10.892;2023-02-10T11:16:09;12.40;84.20
33741;DHT22;20065;48.380;10.892;2023-02-10T11:19:00;12.60;86.40
33741;DHT22;20065;48.380;10.892;2023-02-10T11:21:47;12.50;86.50
33741;DHT22;20065;48.380;10.892;2023-02-10T11:24:33;12.40;87.40
33741;DHT22;20065;48.380;10.892;2023-02-10T11:27:20;10.40;88.60
33741;DHT22;20065;48.380;10.892;2023-02-10T11:30:34;10.00;90.40
33741;DHT22;20065;48.380;10.892;2023-02-10T11:33:24;9.80;91.50
33741;DHT22;20065;48.380;10.892;2023-02-10T11:36:11;8.90;90.90
33741;DHT22;20065;48.380;10.892;2023-02-10T11:39:00;8.00;92.20
33741;DHT22;20065;48.380;10.892;2023-02-10T11:41:47;8.60;93.40
33741;DHT22;20065;48.380;10.892;2023-02-10T11:44:34;9.50;91.40
33741;DHT22;20065;48.380;10.892;2023-02-10T11:47:20;9.40;91.50
33741;DHT22;20065;48.380;10.892;2023-02-10T11:50:23;8.90;92.40
33741;DHT22;20065;48.380;10.892;2023-02-10T11:53:25;9.20;92.50
33741;DHT22;20065;48.380;10.892;2023-02-10T11:56:40;8.40;92.80
33741;DHT22;20065;48.380;10.892;2023-02-10T12:00:06;7.90;94.10
33741;DHT22;20065;48.380;10.892;2023-02-10T12:03:28;7.10;94.90
33741;DHT22;20065;48.380;10.892;2023-02-10T12:06:37;6.60;95.60
33741;DHT22;20065;48.380;10.892;2023-02-10T12:09:43;6.10;96.80
33741;DHT22;20065;48.380;10.892;2023-02-10T12:28:01;5.30;99.10
33741;DHT22;20065;48.380;10.892;2023-02-10T12:30:59;5.00;99.70
33741;DHT22;20065;48.380;10.892;2023-02-10T12:41:01;4.80;99.90
33741;DHT22;20065;48.380;10.892;2023-02-10T12:46:55;4.70;99.90
33741;DHT22;20065;48.380;10.892;2023-02-10T12:53:19;4.70;99.90
33741;DHT22;20065;48.380;10.892;2023-02-10T12:56:29;4.90;99.90
33741;DHT22;20065;48.380;10.892;2023-02-10T12:59:21;4.80;99.90
33741;DHT22;20065;48.380;10.892;2023-02-10T13:02:17;4.70;99.90
33741;DHT22;20065;48.380;10.892;2023-02-10T13:05:17;4.80;99.90
33741;DHT22;20065;48.380;10.892;2023-02-10T13:08:05;5.10;99.90
33741;DHT22;20065;48.380;10.892;2023-02-10T13:11:01;5.20;99.90
33741;DHT22;20065;48.380;10.892;2023-02-10T13:13:51;5.20;99.90
33741;DHT22;20065;48.380;10.892;2023-02-10T13:16:40;5.30;99.90
33741;DHT22;20065;48.380;10.892;2023-02-10T13:34:59;4.80;99.90
33741;DHT22;20065;48.380;10.892;2023-02-10T13:37:50;4.80;99.90
33741;DHT22;20065;48.380;10.892;2023-02-10T13:40:50;4.80;99.90
33741;DHT22;20065;48.380;10.892;2023-02-10T13:43:37;4.70;99.90
33741;DHT22;20065;48.380;10.892;2023-02-10T13:46:28;4.80;99.90
33741;DHT22;20065;48.380;10.892;2023-02-10T13:49:17;4.80;99.90
33741;DHT22;20065;48.380;10.892;2023-02-10T13:52:18;4.80;99.90
33741;DHT22;20065;48.380;10.892;2023-02-10T13:57:59;4.80;99.90
33741;DHT22;20065;48.380;10.892;2023-02-10T14:01:00;4.70;99.90
33741;DHT22;20065;48.380;10.892;2023-02-10T14:03:54;4.70;99.90
33741;DHT22;20065;48.380;10.892;2023-02-10T14:06:41;4.80;99.90
33741;DHT22;20065;48.380;10.892;2023-02-10T14:12:27;4.80;99.90
33741;DHT22;20065;48.380;10.892;2023-02-10T14:15:26;4.80;99.90
33741;DHT22;20065;48.380;10.892;2023-02-10T14:18:24;4.80;99.90
33741;DHT22;20065;48.380;10.892;2023-02-10T14:21:13;4.90;99.90
33741;DHT22;20065;48.380;10.892;2023-02-10T14:24:00;5.00;99.90
33741;DHT22;20065;48.380;10.892;2023-02-10T14:26:47;4.90;99.90
33741;DHT22;20065;48.380;10.892;2023-02-10T14:29:42;4.70;99.90
33741;DHT22;20065;48.380;10.892;2023-02-10T14:32:31;4.80;99.90
33741;DHT22;20065;48.380;10.892;2023-02-10T14:35:25;4.90;99.90
33741;DHT22;20065;48.380;10.892;2023-02-10T14:38:23;5.00;99.90
33741;DHT22;20065;48.380;10.892;2023-02-10T14:41:12;4.90;99.90
33741;DHT22;20065;48.380;10.892;2023-02-10T14:43:59;4.90;99.90
33741;DHT22;20065;48.380;10.892;2023-02-10T14:46:46;5.00;99.90
33741;DHT22;20065;48.380;10.892;2023-02-10T14:49:33;5.00;99.90
33741;DHT22;20065;48.380;10.892;2023-02-10T14:52:29;4.90;99.90
33741;DHT22;20065;48.380;10.892;2023-02-10T14:55:24;4.90;99.90
33741;DHT22;20065;48.380;10.892;2023-02-10T14:58:15;4.90;99.90
33741;DHT22;20065;48.380;10.892;2023-02-10T15:03:57;4.90;99.90
33741;DHT22;20065;48.380;10.892;2023-02-10T15:06:45;4.80;99.90
33741;DHT22;20065;48.380;10.892;2023-02-10T15:09:36;4.80;99.90
33741;DHT22;20065;48.380;10.892;2023-02-10T15:12:23;4.80;99.90
33741;DHT22;20065;48.380;10.892;2023-02-10T15:18:13;4.60;99.90
33741;DHT22;20065;48.380;10.892;2023-02-10T15:21:03;4.60;99.90
33741;DHT22;20065;48.380;10.892;2023-02-10T15:23:50;4.50;99.90
33741;DHT22;20065;48.380;10.892;2023-02-10T15:26:36;4.50;99.90
33741;DHT22;20065;48.380;10.892;2023-02-10T15:29:35;4.40;99.90
33741;DHT22;20065;48.380;10.892;2023-02-10T15:32:22;4.40;99.90
33741;DHT22;20065;48.380;10.892;2023-02-10T15:35:13;4.40;99.90
33741;DHT22;20065;48.380;10.892;2023-02-10T15:38:02;4.30;99.90
33741;DHT22;20065;48.380;10.892;2023-02-10T15:40:55;4.30;99.90
33741;DHT22;20065;48.380;10.892;2023-02-10T15:43:47;4.30;99.90
33741;DHT22;20065;48.380;10.892;2023-02-10T15:46:35;4.30;99.90
33741;DHT22;20065;48.380;10.892;2023-02-10T15:49:22;4.20;99.90
33741;DHT22;20065;48.380;10.892;2023-02-10T15:52:32;4.20;99.90
33741;DHT22;20065;48.380;10.892;2023-02-10T15:55:28;4.10;99.90
33741;DHT22;20065;48.380;10.892;2023-02-10T15:58:15;4.10;99.90
33741;DHT22;20065;48.380;10.892;2023-02-10T16:01:02;3.90;99.90
33741;DHT22;20065;48.380;10.892;2023-02-10T16:03:48;4.00;99.90
33741;DHT22;20065;48.380;10.892;2023-02-10T16:06:35;3.90;99.90
33741;DHT22;20065;48.380;10.892;2023-02-10T16:09:22;3.80;99.90
33741;DHT22;20065;48.380;10.892;2023-02-10T16:12:08;3.80;99.90
33741;DHT22;20065;48.380;10.892;2023-02-10T16:14:54;3.70;99.90
33741;DHT22;20065;48.380;10.892;2023-02-10T16:17:43;3.70;99.90
33741;DHT22;20065;48.380;10.892;2023-02-10T16:20:32;3.60;99.90
33741;DHT22;20065;48.380;10.892;2023-02-10T16:23:19;3.50;99.90
33741;DHT22;20065;48.380;10.892;2023-02-10T16:26:08;3.50;99.90
33741;DHT22;20065;48.380;10.892;2023-02-10T16:28:54;3.40;99.90
33741;DHT22;20065;48.380;10.892;2023-02-10T16:31:42;3.30;99.90
33741;DHT22;20065;48.380;10.892;2023-02-10T16:34:28;3.20;99.90
33741;DHT22;20065;48.380;10.892;2023-02-10T16:37:21;3.10;99.90
33741;DHT22;20065;48.380;10.892;2023-02-10T16:40:07;3.00;99.90
33741;DHT22;20065;48.380;10.892;2023-02-10T16:42:54;2.90;99.90
33741;DHT22;20065;48.380;10.892;2023-02-10T16:45:40;2.80;99.90
33741;DHT22;20065;48.380;10.892;2023-02-10T16:48:26;2.80;99.90
33741;DHT22;20065;48.380;10.892;2023-02-10T16:51:14;2.70;99.90
33741;DHT22;20065;48.380;10.892;2023-02-10T16:54:01;2.60;99.90
33741;DHT22;20065;48.380;10.892;2023-02-10T16:56:53;2.60;99.90
33741;DHT22;20065;48.380;10.892;2023-02-10T16:59:39;2.50;99.90
33741;DHT22;20065;48.380;10.892;2023-02-10T17:02:25;2.40;99.90
33741;DHT22;20065;48.380;10.892;2023-02-10T17:05:11;2.40;99.90
33741;DHT22;20065;48.380;10.892;2023-02-10T17:08:01;2.30;99.90
33741;DHT22;20065;48.380;10.892;2023-02-10T17:10:49;2.30;99.90
33741;DHT22;20065;48.380;10.892;2023-02-10T17:13:40;2.20;99.90
33741;DHT22;20065;48.380;10.892;2023-02-10T17:16:55;2.20;99.90
33741;DHT22;20065;48.380;10.892;2023-02-10T17:19:52;2.10;99.90
33741;DHT22;20065;48.380;10.892;2023-02-10T17:22:39;2.10;99.90
33741;DHT22;20065;48.380;10.892;2023-02-10T17:25:26;2.00;99.90
33741;DHT22;20065;48.380;10.892;2023-02-10T17:28:14;2.00;99.90
33741;DHT22;20065;48.380;10.892;2023-02-10T17:31:01;2.00;99.90
33741;DHT22;20065;48.380;10.892;2023-02-10T17:33:51;1.90;99.90
33741;DHT22;20065;48.380;10.892;2023-02-10T17:36:38;1.90;99.90
33741;DHT22;20065;48.380;10.892;2023-02-10T17:39:24;1.90;99.90
33741;DHT22;20065;48.380;10.892;2023-02-10T17:42:11;1.80;99.90
33741;DHT22;20065;48.380;10.892;2023-02-10T17:44:57;1.80;99.90
33741;DHT22;20065;48.380;10.892;2023-02-10T17:47:44;1.80;99.90
33741;DHT22;20065;48.380;10.892;2023-02-10T17:50:31;1.80;99.90
33741;DHT22;20065;48.380;10.892;2023-02-10T17:53:17;1.70;99.90
33741;DHT22;20065;48.380;10.892;2023-02-10T17:56:03;1.70;99.90
33741;DHT22;20065;48.380;10.892;2023-02-10T17:58:49;1.70;99.90
33741;DHT22;20065;48.380;10.892;2023-02-10T18:01:36;1.70;99.90
33741;DHT22;20065;48.380;10.892;2023-02-10T18:04:23;1.60;99.90
33741;DHT22;20065;48.380;10.892;2023-02-10T18:07:09;1.60;99.90
33741;DHT22;20065;48.380;10.892;2023-02-10T18:09:56;1.60;99.90
33741;DHT22;20065;48.380;10.892;2023-02-10T18:12:42;1.60;99.90
33741;DHT22;20065;48.380;10.892;2023-02-10T18:15:28;1.50;99.90
33741;DHT22;20065;48.380;10.892;2023-02-10T18:18:14;1.50;99.90
33741;DHT22;20065;48.380;10.892;2023-02-10T18:21:01;1.50;99.90
33741;DHT22;20065;48.380;10.892;2023-02-10T18:23:47;1.50;99.90
33741;DHT22;20065;48.380;10.892;2023-02-10T18:26:34;1.50;99.90
33741;DHT22;20065;48.380;10.892;2023-02-10T18:29:20;1.50;99.90
33741;DHT22;20065;48.380;10.892;2023-02-10T18:32:07;1.50;99.90
33741;DHT22;20065;48.380;10.892;2023-02-10T18:34:54;1.50;99.90
33741;DHT22;20065;48.380;10.892;2023-02-10T18:37:41;1.40;99.90
33741;DHT22;20065;48.380;10.892;2023-02-10T18:40:30;1.40;99.90
33741;DHT22;20065;48.380;10.892;2023-02-10T18:43:18;1.40;99.90
33741;DHT22;20065;48.380;10.892;2023-02-10T18:46:04;1.40;99.90
33741;DHT22;20065;48.380;10.892;2023-02-10T18:48:52;1.50;99.90
33741;DHT22;20065;48.380;10.892;2023-02-10T18:51:38;1.50;99.90
33741;DHT22;20065;48.380;10.892;2023-02-10T18:54:25;1.60;99.90
33741;DHT22;20065;48.380;10.892;2023-02-10T18:57:12;1.50;99.90
33741;DHT22;20065;48.380;10.892;2023-02-10T19:00:06;1.50;99.90
33741;DHT22;20065;48.380;10.892;2023-02-10T19:02:53;1.40;99.90
33741;DHT22;20065;48.380;10.892;2023-02-10T19:05:39;1.40;99.90
33741;DHT22;20065;48.380;10.892;2023-02-10T19:08:25;1.30;99.90
33741;DHT22;20065;48.380;10.892;2023-02-10T19:11:15;1.20;99.90
33741;DHT22;20065;48.380;10.892;2023-02-10T19:14:01;1.30;99.90
33741;DHT22;20065;48.380;10.892;2023-02-10T19:16:47;1.20;99.90